Time;durP1;ratioP1;P1;durP2;ratioP2;P2;SDS_P1;SDS_P2;PMS_P1;PMS_P2;Temp;Humidity;BMP_temperature;BMP_pressure;BME280_temperature;BME280_humidity;BME280_pressure;Samples;Min_cycle;Max_cycle;Signal;HPM_P1;HPM_P2
2023/04/27 00:01:59;;;;;;;1.10;1.00;;;8.00;99.90;;;;;;4936385;29;20298;-65
2023/04/27 00:04:28;;;;;;;0.60;0.50;;;8.00;99.90;;;;;;4934511;29;20353;-64
2023/04/27 00:06:56;;;;;;;0.85;0.57;;;8.00;99.90;;;;;;4935608;29;20673;-64
2023/04/27 00:09:24;;;;;;;0.70;0.57;;;7.90;99.90;;;;;;4935331;29;20234;-65
2023/04/27 00:11:52;;;;;;;0.60;0.52;;;8.00;99.90;;;;;;4935271;29;20295;-64
2023/04/27 00:14:20;;;;;;;1.05;0.73;;;8.00;99.90;;;;;;4935382;29;20208;-64
2023/04/27 00:16:48;;;;;;;1.48;0.90;;;7.90;99.90;;;;;;4935749;29;20294;-65
2023/04/27 00:19:16;;;;;;;0.70;0.50;;;7.90;99.90;;;;;;4935308;29;20321;-63
2023/04/27 00:21:45;;;;;;;1.00;0.90;;;7.90;99.90;;;;;;4935156;29;20286;-66
2023/04/27 00:24:13;;;;;;;0.60;0.50;;;7.90;99.90;;;;;;4934120;29;20672;-64
2023/04/27 00:26:41;;;;;;;0.70;0.50;;;7.90;99.90;;;;;;4930428;29;20207;-65
2023/04/27 00:29:09;;;;;;;0.60;0.60;;;7.80;99.90;;;;;;4930973;29;20231;-65
2023/04/27 00:31:37;;;;;;;0.60;0.50;;;7.70;99.90;;;;;;4933220;29;20583;-66
2023/04/27 00:34:05;;;;;;;0.90;0.60;;;7.60;99.90;;;;;;4935254;29;20217;-65
2023/04/27 00:36:34;;;;;;;0.60;0.50;;;7.60;99.90;;;;;;4935469;29;20898;-64
2023/04/27 00:39:05;;;;;;;0.63;0.60;;;7.60;99.90;;;;;;4935171;29;20310;-65
2023/04/27 00:41:33;;;;;;;0.80;0.60;;;7.50;99.90;;;;;;4935293;29;20294;-64
2023/04/27 00:44:00;;;;;;;0.60;0.50;;;7.60;99.90;;;;;;4935194;29;20306;-65
2023/04/27 00:46:29;;;;;;;1.00;0.60;;;7.60;99.90;;;;;;4934787;29;20236;-65
2023/04/27 00:48:57;;;;;;;1.17;0.88;;;7.50;99.90;;;;;;4935094;29;20232;-64
2023/04/27 00:51:27;;;;;;;0.60;0.40;;;7.50;99.90;;;;;;4935011;29;20212;-64
2023/04/27 00:53:55;;;;;;;1.25;0.68;;;7.50;99.90;;;;;;4934878;29;20306;-65
2023/04/27 00:56:25;;;;;;;0.90;0.80;;;7.50;99.90;;;;;;4934706;29;20641;-64
2023/04/27 00:58:52;;;;;;;0.60;0.40;;;7.40;99.90;;;;;;4934569;29;20237;-65
2023/04/27 01:01:20;;;;;;;1.02;0.73;;;7.30;99.90;;;;;;4934633;29;20299;-64
2023/04/27 01:03:48;;;;;;;0.60;0.50;;;7.30;99.90;;;;;;4934532;29;20768;-64
2023/04/27 01:06:17;;;;;;;0.70;0.60;;;7.30;99.90;;;;;;4934776;29;20306;-64
2023/04/27 01:08:45;;;;;;;1.70;0.63;;;7.30;99.90;;;;;;4934510;29;20307;-64
2023/04/27 01:11:13;;;;;;;0.60;0.50;;;7.40;99.90;;;;;;4934716;29;20212;-64
2023/04/27 01:13:42;;;;;;;0.70;0.60;;;7.30;99.90;;;;;;4934387;29;20208;-64
2023/04/27 01:16:10;;;;;;;0.98;0.65;;;7.40;99.90;;;;;;4934418;29;20301;-65
2023/04/27 01:18:39;;;;;;;0.60;0.40;;;7.20;99.90;;;;;;4934034;29;20238;-65
2023/04/27 01:21:07;;;;;;;0.70;0.57;;;7.20;99.90;;;;;;4934681;29;20301;-64
2023/04/27 01:23:36;;;;;;;0.60;0.50;;;7.20;99.90;;;;;;4926966;29;20207;-64
2023/04/27 01:26:04;;;;;;;0.60;0.47;;;7.20;99.90;;;;;;4941915;29;20204;-65
2023/04/27 01:28:41;;;;;;;0.70;0.43;;;7.20;99.90;;;;;;4927795;29;20219;-64
2023/04/27 01:31:11;;;;;;;1.13;0.63;;;7.10;99.90;;;;;;4934126;29;20219;-65
2023/04/27 01:33:39;;;;;;;0.73;0.55;;;7.10;99.90;;;;;;4933734;29;20207;-65
2023/04/27 01:36:08;;;;;;;0.80;0.70;;;7.20;99.90;;;;;;4934326;29;20212;-64
2023/04/27 01:38:37;;;;;;;0.80;0.60;;;7.20;99.90;;;;;;4933789;29;20228;-64
2023/04/27 01:41:07;;;;;;;0.70;0.60;;;7.20;99.90;;;;;;4932858;29;20339;-64
2023/04/27 01:43:36;;;;;;;0.70;0.55;;;7.10;99.90;;;;;;4933376;29;20204;-65
2023/04/27 01:46:08;;;;;;;1.35;0.80;;;7.00;99.90;;;;;;4933938;29;20215;-64
2023/04/27 01:48:36;;;;;;;0.60;0.50;;;7.00;99.90;;;;;;4931678;29;20605;-64
2023/04/27 01:51:04;;;;;;;0.70;0.60;;;7.00;99.90;;;;;;4931148;29;20294;-65
2023/04/27 01:53:32;;;;;;;0.88;0.88;;;7.00;99.90;;;;;;4931882;29;20204;-64
2023/04/27 01:56:02;;;;;;;1.15;0.80;;;6.90;99.90;;;;;;4932550;29;20298;-64
2023/04/27 01:58:30;;;;;;;0.73;0.65;;;6.90;99.90;;;;;;4931856;29;20255;-64
2023/04/27 02:00:58;;;;;;;0.77;0.77;;;6.80;99.90;;;;;;4931208;29;20212;-65
2023/04/27 02:03:26;;;;;;;0.63;0.60;;;6.80;99.90;;;;;;4931576;29;20211;-64
2023/04/27 02:05:54;;;;;;;0.73;0.70;;;6.80;99.90;;;;;;4932087;29;20295;-64
2023/04/27 02:08:22;;;;;;;1.10;0.82;;;6.70;99.90;;;;;;4931316;29;20278;-64
2023/04/27 02:10:49;;;;;;;0.70;0.63;;;6.60;99.90;;;;;;4932186;29;20640;-65
2023/04/27 02:13:20;;;;;;;0.90;0.70;;;6.50;99.90;;;;;;4929521;29;20596;-64
2023/04/27 02:15:47;;;;;;;0.70;0.50;;;6.50;99.90;;;;;;4931813;29;20226;-64
2023/04/27 02:18:15;;;;;;;0.85;0.80;;;6.40;99.90;;;;;;4929962;29;20266;-64
2023/04/27 02:20:43;;;;;;;0.70;0.60;;;6.40;99.90;;;;;;4931733;29;20586;-64
2023/04/27 02:23:11;;;;;;;0.60;0.60;;;6.40;99.90;;;;;;4931670;29;20214;-64
2023/04/27 02:25:41;;;;;;;0.98;0.60;;;6.40;99.90;;;;;;4931278;29;20234;-64
2023/04/27 02:28:09;;;;;;;0.80;0.55;;;6.40;99.90;;;;;;4930591;29;20804;-63
2023/04/27 02:30:39;;;;;;;0.65;0.57;;;6.30;99.90;;;;;;4932211;29;20206;-65
2023/04/27 02:33:07;;;;;;;0.60;0.50;;;6.30;99.90;;;;;;4930244;29;20217;-63
2023/04/27 02:35:35;;;;;;;0.80;0.65;;;6.30;99.90;;;;;;4930013;29;20622;-64
2023/04/27 02:38:03;;;;;;;0.75;0.55;;;6.30;99.90;;;;;;4931078;29;20295;-64
2023/04/27 02:44:36;;;;;;;0.70;0.60;;;6.30;99.90;;;;;;4926822;29;20199;-65
2023/04/27 02:47:06;;;;;;;0.65;0.60;;;6.30;99.90;;;;;;4933177;29;20295;-63
2023/04/27 02:49:34;;;;;;;0.75;0.52;;;6.20;99.90;;;;;;4929036;29;20232;-64
2023/04/27 02:52:05;;;;;;;0.80;0.60;;;6.20;99.90;;;;;;4930746;29;20670;-64
2023/04/27 02:54:33;;;;;;;0.73;0.60;;;6.20;99.90;;;;;;4932223;29;20273;-63
2023/04/27 02:57:01;;;;;;;0.68;0.63;;;6.20;99.90;;;;;;4930395;29;20226;-64
2023/04/27 02:59:29;;;;;;;0.80;0.70;;;6.20;99.90;;;;;;4931268;29;20285;-64
2023/04/27 03:01:57;;;;;;;0.70;0.70;;;6.20;99.90;;;;;;4929220;29;20708;-64
2023/04/27 03:04:26;;;;;;;0.70;0.50;;;6.20;99.90;;;;;;4929325;29;20689;-64
2023/04/27 03:06:55;;;;;;;0.70;0.50;;;6.20;99.90;;;;;;4928439;29;20301;-64
2023/04/27 03:09:23;;;;;;;0.60;0.40;;;6.10;99.90;;;;;;4931159;29;20232;-64
2023/04/27 03:11:51;;;;;;;0.80;0.70;;;6.20;99.90;;;;;;4930291;29;20688;-65
2023/04/27 03:14:19;;;;;;;0.93;0.82;;;6.10;99.90;;;;;;4930692;29;20935;-63
2023/04/27 03:16:47;;;;;;;1.08;0.90;;;6.10;99.90;;;;;;4930350;29;20659;-64
2023/04/27 03:19:15;;;;;;;0.80;0.50;;;6.10;99.90;;;;;;4931658;29;20318;-64
2023/04/27 03:21:44;;;;;;;1.02;0.60;;;6.10;99.90;;;;;;4927912;29;20204;-65
2023/04/27 03:24:12;;;;;;;0.95;0.95;;;6.20;99.90;;;;;;4931308;29;20225;-64
2023/04/27 03:26:40;;;;;;;1.65;0.80;;;6.20;99.90;;;;;;4927660;29;20212;-65
2023/04/27 03:29:08;;;;;;;0.70;0.52;;;6.20;99.90;;;;;;4932792;29;20318;-64
2023/04/27 03:31:36;;;;;;;0.70;0.60;;;6.20;99.90;;;;;;4931366;29;20210;-64
2023/04/27 03:34:04;;;;;;;1.35;0.70;;;6.20;99.90;;;;;;4929701;29;20206;-65
2023/04/27 03:36:32;;;;;;;2.25;0.70;;;6.20;99.90;;;;;;4931073;29;20285;-65
2023/04/27 03:39:02;;;;;;;1.00;0.90;;;6.20;99.90;;;;;;4932891;29;20234;-65
2023/04/27 03:41:29;;;;;;;0.60;0.60;;;6.20;99.90;;;;;;4934504;29;20663;-64
2023/04/27 03:43:57;;;;;;;0.63;0.50;;;6.30;99.90;;;;;;4933930;29;20255;-64
2023/04/27 03:46:25;;;;;;;1.45;0.80;;;6.20;99.90;;;;;;4933479;29;20294;-64
2023/04/27 03:48:53;;;;;;;0.70;0.70;;;6.20;99.90;;;;;;4935119;29;20735;-64
2023/04/27 03:51:21;;;;;;;0.60;0.60;;;6.30;99.90;;;;;;4935189;29;20229;-64
2023/04/27 03:53:49;;;;;;;0.85;0.70;;;6.30;99.90;;;;;;4932502;29;20343;-65
2023/04/27 03:56:18;;;;;;;0.95;0.55;;;6.30;99.90;;;;;;4934676;29;20213;-64
2023/04/27 03:58:46;;;;;;;1.27;0.90;;;6.30;99.90;;;;;;4927799;29;20313;-65
2023/04/27 04:01:15;;;;;;;0.60;0.40;;;6.40;99.90;;;;;;4934703;29;20207;-64
2023/04/27 04:03:43;;;;;;;0.60;0.50;;;6.40;99.90;;;;;;4933636;29;20205;-64
2023/04/27 04:06:11;;;;;;;0.70;0.60;;;6.30;99.90;;;;;;4933897;29;20219;-65
2023/04/27 04:08:39;;;;;;;0.80;0.60;;;6.30;99.90;;;;;;4933215;29;20291;-65
2023/04/27 04:11:07;;;;;;;0.70;0.68;;;6.40;99.90;;;;;;4933937;29;20208;-64
2023/04/27 04:13:36;;;;;;;0.68;0.63;;;6.30;99.90;;;;;;4931031;29;20235;-64
2023/04/27 04:16:05;;;;;;;0.68;0.60;;;6.20;99.90;;;;;;4932754;29;20680;-64
2023/04/27 04:18:34;;;;;;;0.65;0.52;;;6.20;99.90;;;;;;4929717;29;20218;-65
2023/04/27 04:21:02;;;;;;;0.65;0.60;;;6.30;99.90;;;;;;4933452;29;20707;-63
2023/04/27 04:23:31;;;;;;;1.23;1.13;;;6.30;99.90;;;;;;4934792;29;20367;-65
2023/04/27 04:26:00;;;;;;;4.63;2.05;;;6.20;99.90;;;;;;4933222;29;20228;-64
2023/04/27 04:28:29;;;;;;;2.75;1.50;;;6.30;99.90;;;;;;4931789;29;20243;-65
2023/04/27 04:31:00;;;;;;;0.70;0.60;;;6.20;99.90;;;;;;4933547;29;20290;-64
2023/04/27 04:33:28;;;;;;;1.25;0.70;;;6.30;99.90;;;;;;4931953;29;20214;-64
2023/04/27 04:35:57;;;;;;;0.93;0.60;;;6.20;99.90;;;;;;4933214;29;20216;-64
2023/04/27 04:38:25;;;;;;;0.80;0.75;;;6.20;99.90;;;;;;4930263;29;20252;-64
2023/04/27 04:40:53;;;;;;;0.82;0.60;;;6.20;99.90;;;;;;4933932;29;20648;-65
2023/04/27 04:43:21;;;;;;;0.70;0.65;;;6.10;99.90;;;;;;4932928;29;20225;-64
2023/04/27 04:45:49;;;;;;;0.70;0.70;;;6.00;99.90;;;;;;4933154;29;20225;-65
2023/04/27 04:48:19;;;;;;;0.77;0.75;;;6.00;99.90;;;;;;4931571;29;20697;-64
2023/04/27 04:50:47;;;;;;;1.13;0.70;;;5.90;99.90;;;;;;4932551;29;20206;-64
2023/04/27 04:53:14;;;;;;;1.45;0.70;;;5.90;99.90;;;;;;4933015;29;20293;-65
2023/04/27 04:55:42;;;;;;;1.00;0.70;;;6.00;99.90;;;;;;4931434;29;20571;-64
2023/04/27 04:58:10;;;;;;;0.70;0.60;;;5.90;99.90;;;;;;4931422;29;20230;-64
2023/04/27 05:00:38;;;;;;;1.45;0.90;;;6.00;99.90;;;;;;4933262;29;20244;-64
2023/04/27 05:03:06;;;;;;;0.70;0.70;;;6.00;99.90;;;;;;4932559;29;20211;-64
2023/04/27 05:05:36;;;;;;;0.70;0.68;;;6.00;99.90;;;;;;4931369;29;20267;-64
2023/04/27 05:08:04;;;;;;;0.80;0.60;;;6.00;99.90;;;;;;4931514;29;20218;-64
2023/04/27 05:10:32;;;;;;;0.70;0.60;;;6.10;99.90;;;;;;4931084;29;20294;-64
2023/04/27 05:13:00;;;;;;;1.00;0.88;;;6.20;99.90;;;;;;4930302;29;20243;-63
2023/04/27 05:15:28;;;;;;;0.70;0.60;;;6.30;99.90;;;;;;4930333;29;20714;-64
2023/04/27 05:17:56;;;;;;;0.80;0.70;;;6.30;99.90;;;;;;4930412;29;20210;-64
2023/04/27 05:20:24;;;;;;;1.15;0.93;;;6.40;99.90;;;;;;4931577;29;20219;-64
2023/04/27 05:22:53;;;;;;;1.10;1.00;;;6.60;99.90;;;;;;4931412;29;20212;-64
2023/04/27 05:25:21;;;;;;;0.80;0.52;;;6.70;99.90;;;;;;4930829;29;20306;-65
2023/04/27 05:27:48;;;;;;;0.73;0.65;;;6.80;99.90;;;;;;4933816;29;20208;-65
2023/04/27 05:30:16;;;;;;;1.23;0.80;;;7.00;99.90;;;;;;4934185;29;20576;-64
2023/04/27 05:32:44;;;;;;;1.70;0.65;;;7.10;99.90;;;;;;4933859;29;20212;-65
2023/04/27 05:35:12;;;;;;;0.95;0.60;;;7.30;99.90;;;;;;4938996;29;20211;-65
2023/04/27 05:37:40;;;;;;;0.75;0.60;;;7.40;99.90;;;;;;4935695;29;20225;-65
2023/04/27 05:40:10;;;;;;;0.60;0.50;;;7.50;99.90;;;;;;4934328;29;20315;-65
2023/04/27 05:42:38;;;;;;;0.65;0.60;;;7.70;99.90;;;;;;4930083;29;20240;-65
2023/04/27 05:45:07;;;;;;;0.95;0.77;;;7.80;99.90;;;;;;4932792;29;20406;-64
2023/04/27 05:47:35;;;;;;;0.70;0.50;;;7.80;99.90;;;;;;4933303;29;20198;-65
2023/04/27 05:50:03;;;;;;;0.70;0.70;;;7.90;99.90;;;;;;4933437;29;20228;-66
2023/04/27 05:52:31;;;;;;;0.70;0.70;;;8.10;99.90;;;;;;4936286;29;20210;-64
2023/04/27 05:54:59;;;;;;;0.90;0.70;;;8.10;99.90;;;;;;4933558;29;20673;-64
2023/04/27 05:57:28;;;;;;;0.70;0.60;;;8.20;99.90;;;;;;4933150;29;20299;-65
2023/04/27 05:59:56;;;;;;;0.70;0.70;;;8.20;99.90;;;;;;4934375;29;20252;-65
2023/04/27 06:02:24;;;;;;;1.35;0.65;;;8.20;99.90;;;;;;4977940;23;20343;-73
2023/04/27 06:04:52;;;;;;;0.60;0.50;;;8.20;99.90;;;;;;4970105;28;20727;-71
2023/04/27 06:07:20;;;;;;;0.90;0.73;;;8.30;99.90;;;;;;4963012;28;20226;-73
2023/04/27 06:09:48;;;;;;;1.40;0.60;;;8.30;99.90;;;;;;4962441;28;20241;-73
2023/04/27 06:12:16;;;;;;;0.80;0.65;;;8.20;99.90;;;;;;4945002;28;20274;-74
2023/04/27 06:14:45;;;;;;;0.80;0.60;;;8.30;99.90;;;;;;4962211;28;21946;-74
2023/04/27 06:17:13;;;;;;;0.60;0.60;;;8.30;99.90;;;;;;4971628;28;20640;-74
2023/04/27 06:19:41;;;;;;;0.93;0.50;;;8.40;99.90;;;;;;4971964;28;20213;-74
2023/04/27 06:22:10;;;;;;;0.60;0.50;;;8.40;99.90;;;;;;4958870;28;20309;-74
2023/04/27 06:24:38;;;;;;;0.70;0.60;;;8.60;99.90;;;;;;4972282;28;20536;-74
2023/04/27 06:27:06;;;;;;;0.70;0.60;;;8.60;99.90;;;;;;4972275;28;20402;-72
2023/04/27 06:29:34;;;;;;;0.60;0.50;;;8.70;99.90;;;;;;4971884;28;20635;-72
2023/04/27 06:32:05;;;;;;;0.70;0.63;;;8.70;99.90;;;;;;4967943;28;20229;-71
2023/04/27 06:34:34;;;;;;;0.60;0.40;;;8.80;99.90;;;;;;4971700;28;20215;-73
2023/04/27 06:37:01;;;;;;;0.70;0.52;;;8.90;99.90;;;;;;4969969;28;20210;-72
2023/04/27 06:39:30;;;;;;;0.93;0.80;;;9.00;99.90;;;;;;4961285;28;20293;-73
2023/04/27 06:41:58;;;;;;;0.60;0.43;;;9.00;99.90;;;;;;4964767;28;20641;-72
2023/04/27 06:44:26;;;;;;;0.55;0.45;;;9.00;99.90;;;;;;4971578;28;20253;-72
2023/04/27 06:46:54;;;;;;;0.73;0.70;;;9.10;99.90;;;;;;4971893;28;20294;-74
2023/04/27 06:49:23;;;;;;;0.60;0.40;;;9.20;99.90;;;;;;4968087;28;20715;-74
2023/04/27 06:51:51;;;;;;;0.70;0.60;;;9.30;99.90;;;;;;4972083;28;20236;-69
2023/04/27 06:54:19;;;;;;;0.90;0.70;;;9.40;99.90;;;;;;4972150;28;20209;-72
2023/04/27 06:56:47;;;;;;;0.93;0.55;;;9.60;99.90;;;;;;4971668;28;20210;-73
2023/04/27 06:59:15;;;;;;;1.23;0.68;;;9.70;99.90;;;;;;4963803;28;20711;-74
2023/04/27 07:01:43;;;;;;;3.17;1.13;;;9.90;99.90;;;;;;4970635;28;20234;-72
2023/04/27 07:04:11;;;;;;;0.70;0.55;;;10.10;99.90;;;;;;4965627;28;20203;-75
2023/04/27 07:06:40;;;;;;;0.60;0.40;;;10.10;99.90;;;;;;4954234;28;20207;-76
2023/04/27 07:09:08;;;;;;;1.63;0.50;;;10.20;99.90;;;;;;4972101;28;20332;-72
2023/04/27 07:11:53;;;;;;;0.88;0.85;;;10.30;99.90;;;;;;4956722;28;20687;-72
2023/04/27 07:14:21;;;;;;;0.50;0.40;;;10.50;99.90;;;;;;4962897;28;20208;-72
2023/04/27 07:16:48;;;;;;;2.30;1.30;;;10.60;99.90;;;;;;4962825;28;20285;-72
2023/04/27 07:19:16;;;;;;;0.90;0.60;;;10.70;99.90;;;;;;4975468;28;20289;-72
2023/04/27 07:21:46;;;;;;;0.52;0.40;;;10.90;99.90;;;;;;4976285;28;20226;-72
2023/04/27 07:24:13;;;;;;;0.65;0.57;;;10.90;99.90;;;;;;4976679;28;20234;-72
2023/04/27 07:26:41;;;;;;;0.60;0.45;;;11.00;99.90;;;;;;4975627;28;20211;-72
2023/04/27 07:29:11;;;;;;;0.50;0.35;;;11.10;99.90;;;;;;4977060;28;20676;-72
2023/04/27 07:31:54;;;;;;;0.60;0.50;;;11.20;99.90;;;;;;4957836;28;20231;-74
2023/04/27 07:34:22;;;;;;;0.60;0.40;;;11.10;99.90;;;;;;4962728;28;20198;-72
2023/04/27 07:36:52;;;;;;;0.90;0.60;;;11.20;99.90;;;;;;4980579;28;20245;-72
2023/04/27 07:39:21;;;;;;;0.57;0.45;;;11.30;99.90;;;;;;4987901;28;20242;-71
2023/04/27 07:41:49;;;;;;;0.57;0.40;;;11.50;99.90;;;;;;4983133;28;20227;-72
2023/04/27 07:44:18;;;;;;;0.75;0.70;;;11.70;99.90;;;;;;4984783;28;20214;-73
2023/04/27 07:46:47;;;;;;;0.60;0.40;;;11.80;99.90;;;;;;4971569;28;20241;-72
2023/04/27 07:49:15;;;;;;;0.70;0.50;;;12.00;99.90;;;;;;4977419;28;20294;-72
2023/04/27 07:51:43;;;;;;;0.50;0.40;;;12.00;99.90;;;;;;4978747;28;20258;-71
2023/04/27 07:54:17;;;;;;;0.70;0.70;;;12.00;99.90;;;;;;4982301;28;20213;-72
2023/04/27 07:56:45;;;;;;;0.50;0.40;;;12.10;99.90;;;;;;4981635;28;20227;-72
2023/04/27 07:59:14;;;;;;;0.50;0.40;;;12.20;99.90;;;;;;4952070;28;20300;-72
2023/04/27 08:01:42;;;;;;;0.60;0.50;;;12.20;99.90;;;;;;4964402;28;20777;-72
2023/04/27 08:04:11;;;;;;;0.77;0.50;;;12.20;99.90;;;;;;4960917;28;20210;-71
2023/04/27 08:06:39;;;;;;;0.60;0.52;;;12.30;99.90;;;;;;4954752;28;20294;-72
2023/04/27 08:09:08;;;;;;;0.60;0.40;;;12.40;99.90;;;;;;4973848;28;20225;-72
2023/04/27 08:11:38;;;;;;;0.60;0.40;;;12.60;99.90;;;;;;4965170;28;20225;-69
2023/04/27 08:14:07;;;;;;;0.60;0.40;;;12.80;99.90;;;;;;4957011;28;20230;-72
2023/04/27 08:16:35;;;;;;;0.70;0.60;;;13.00;99.90;;;;;;4957637;28;20286;-74
2023/04/27 08:19:03;;;;;;;0.80;0.52;;;13.20;99.90;;;;;;4958187;28;20203;-71
2023/04/27 08:21:31;;;;;;;0.60;0.50;;;13.20;99.90;;;;;;4954445;28;20310;-73
2023/04/27 08:23:59;;;;;;;0.55;0.40;;;13.10;99.40;;;;;;4962162;28;20731;-73
2023/04/27 08:26:27;;;;;;;0.50;0.40;;;13.20;99.90;;;;;;4960996;28;20230;-73
2023/04/27 08:28:56;;;;;;;0.50;0.40;;;13.30;99.90;;;;;;4957962;28;20308;-73
2023/04/27 08:31:25;;;;;;;0.80;0.80;;;13.40;99.90;;;;;;4956233;28;20258;-74
2023/04/27 08:33:53;;;;;;;0.60;0.50;;;13.60;99.70;;;;;;4962869;28;20220;-73
2023/04/27 08:36:23;;;;;;;0.50;0.40;;;13.80;99.50;;;;;;4953267;28;20199;-74
2023/04/27 08:38:51;;;;;;;0.50;0.40;;;13.90;98.50;;;;;;4964225;28;20215;-73
2023/04/27 08:41:21;;;;;;;0.50;0.40;;;14.00;98.80;;;;;;4959368;28;20274;-74
2023/04/27 08:43:50;;;;;;;0.60;0.50;;;14.20;98.40;;;;;;4954553;28;20211;-74
2023/04/27 08:46:21;;;;;;;0.60;0.40;;;14.30;97.80;;;;;;4960002;28;20232;-73
2023/04/27 08:48:50;;;;;;;0.73;0.60;;;14.30;97.70;;;;;;4954773;28;20297;-74
2023/04/27 08:51:19;;;;;;;0.60;0.50;;;14.40;97.90;;;;;;4953303;28;20338;-72
2023/04/27 08:53:50;;;;;;;0.70;0.50;;;14.60;97.30;;;;;;4954556;28;20261;-73
2023/04/27 08:56:18;;;;;;;0.60;0.50;;;14.70;97.70;;;;;;4959313;28;20269;-73
2023/04/27 08:58:46;;;;;;;0.50;0.40;;;14.90;96.30;;;;;;4960787;28;20266;-73
2023/04/27 09:01:14;;;;;;;0.60;0.47;;;14.80;96.10;;;;;;4965475;28;20266;-73
2023/04/27 09:03:45;;;;;;;0.50;0.40;;;15.00;96.50;;;;;;4953427;28;20230;-72
2023/04/27 09:06:15;;;;;;;0.50;0.40;;;15.10;96.30;;;;;;4949269;28;20728;-74
2023/04/27 09:08:44;;;;;;;0.80;0.65;;;15.00;95.60;;;;;;4951590;28;20231;-73
2023/04/27 09:11:12;;;;;;;0.60;0.50;;;15.20;95.30;;;;;;4943692;28;20811;-72
2023/04/27 09:13:43;;;;;;;0.70;0.60;;;15.40;96.90;;;;;;4967944;28;20203;-73
2023/04/27 09:16:13;;;;;;;0.65;0.45;;;15.50;95.50;;;;;;4970654;28;20609;-72
2023/04/27 09:18:44;;;;;;;0.70;0.50;;;15.60;95.80;;;;;;4964022;28;20206;-73
2023/04/27 09:21:22;;;;;;;0.80;0.80;;;15.70;95.40;;;;;;4953619;28;20763;-72
2023/04/27 09:23:51;;;;;;;0.60;0.40;;;15.90;95.10;;;;;;4963457;28;20236;-72
2023/04/27 09:26:22;;;;;;;1.60;0.77;;;16.20;94.70;;;;;;4972305;28;20210;-73
2023/04/27 09:28:53;;;;;;;0.50;0.30;;;16.20;94.80;;;;;;4972460;28;20300;-72
2023/04/27 09:31:22;;;;;;;0.60;0.43;;;16.20;94.30;;;;;;4972626;28;20590;-73
2023/04/27 09:33:56;;;;;;;0.60;0.47;;;16.30;94.70;;;;;;4970911;28;20207;-73
2023/04/27 09:36:25;;;;;;;0.57;0.47;;;16.20;93.60;;;;;;4968811;28;20261;-73
2023/04/27 09:38:53;;;;;;;0.60;0.40;;;16.30;94.60;;;;;;4971139;28;20293;-73
2023/04/27 09:41:22;;;;;;;0.60;0.40;;;16.60;92.70;;;;;;4972626;28;20226;-73
2023/04/27 09:43:51;;;;;;;0.75;0.65;;;16.80;93.60;;;;;;4972376;28;20305;-73
2023/04/27 09:46:20;;;;;;;0.60;0.50;;;16.80;92.10;;;;;;4963180;28;20227;-71
2023/04/27 09:48:50;;;;;;;0.85;0.85;;;16.80;93.30;;;;;;4952621;28;20229;-72
2023/04/27 09:51:19;;;;;;;0.60;0.40;;;16.90;93.60;;;;;;4972500;28;20265;-73
2023/04/27 09:53:52;;;;;;;0.60;0.47;;;16.90;92.40;;;;;;4952709;28;20263;-72
2023/04/27 09:56:29;;;;;;;1.05;0.95;;;17.00;93.40;;;;;;4941976;28;20246;-71
2023/04/27 09:59:17;;;;;;;0.60;0.45;;;17.30;93.90;;;;;;4944369;28;20229;-72
2023/04/27 10:01:48;;;;;;;0.57;0.40;;;17.80;92.70;;;;;;4956165;28;20270;-73
2023/04/27 10:04:34;;;;;;;0.60;0.40;;;17.80;90.30;;;;;;4946774;28;20636;-70
2023/04/27 10:07:07;;;;;;;0.60;0.40;;;17.80;90.80;;;;;;4939306;28;20206;-72
2023/04/27 10:09:37;;;;;;;0.60;0.40;;;17.90;91.50;;;;;;4939146;28;20210;-72
2023/04/27 10:12:17;;;;;;;0.60;0.50;;;18.20;92.10;;;;;;4942479;28;20224;-72
2023/04/27 10:14:49;;;;;;;0.70;0.63;;;18.60;90.10;;;;;;4938681;28;20629;-72
2023/04/27 10:17:18;;;;;;;0.70;0.50;;;18.60;88.30;;;;;;4937557;28;20633;-73
2023/04/27 10:19:58;;;;;;;0.77;0.65;;;18.90;85.20;;;;;;4939930;28;20756;-73
2023/04/27 10:22:39;;;;;;;1.58;1.10;;;19.30;87.50;;;;;;4957942;28;20227;-72
2023/04/27 10:25:16;;;;;;;0.57;0.40;;;19.40;83.90;;;;;;4957649;28;20667;-73
2023/04/27 10:27:50;;;;;;;0.60;0.40;;;19.50;82.60;;;;;;4954994;28;20207;-70
2023/04/27 10:30:20;;;;;;;0.60;0.50;;;19.50;83.60;;;;;;4952466;28;20234;-72
2023/04/27 10:32:52;;;;;;;0.60;0.40;;;19.70;83.30;;;;;;4952000;28;20231;-72
2023/04/27 10:35:21;;;;;;;0.63;0.50;;;19.90;82.70;;;;;;4951600;28;20204;-73
2023/04/27 10:37:51;;;;;;;0.60;0.60;;;20.10;82.60;;;;;;4967078;28;20215;-73
2023/04/27 10:40:20;;;;;;;1.60;0.70;;;19.90;81.50;;;;;;4958074;28;20217;-72
2023/04/27 10:42:48;;;;;;;1.13;0.43;;;19.80;80.70;;;;;;4953839;28;20797;-72
2023/04/27 10:45:27;;;;;;;0.90;0.70;;;19.70;80.20;;;;;;4952407;28;20203;-73
2023/04/27 10:48:00;;;;;;;0.60;0.50;;;19.50;80.20;;;;;;4957809;28;20688;-73
2023/04/27 10:50:30;;;;;;;1.98;0.80;;;19.50;81.30;;;;;;4955357;28;20211;-73
2023/04/27 10:53:04;;;;;;;0.60;0.50;;;19.80;79.00;;;;;;4966821;28;20203;-73
2023/04/27 10:55:33;;;;;;;0.70;0.60;;;19.70;79.70;;;;;;4971215;28;20270;-72
2023/04/27 10:58:02;;;;;;;0.60;0.50;;;20.10;76.90;;;;;;4973384;28;20303;-73
2023/04/27 11:00:32;;;;;;;0.60;0.47;;;20.30;76.70;;;;;;4972119;28;20265;-73
2023/04/27 11:03:13;;;;;;;0.60;0.45;;;20.60;79.40;;;;;;4968754;28;20666;-72
2023/04/27 11:05:43;;;;;;;0.70;0.52;;;21.00;79.40;;;;;;4966340;28;20202;-74
2023/04/27 11:08:14;;;;;;;1.00;0.73;;;21.20;77.30;;;;;;4959938;28;20216;-69
2023/04/27 11:10:44;;;;;;;0.65;0.43;;;21.30;75.50;;;;;;4967012;28;20203;-71
2023/04/27 11:13:14;;;;;;;0.88;0.65;;;21.70;74.20;;;;;;4970432;28;20214;-72
2023/04/27 11:15:46;;;;;;;1.80;0.70;;;21.60;73.70;;;;;;4972438;28;20262;-71
2023/04/27 11:18:16;;;;;;;0.73;0.65;;;21.50;74.10;;;;;;4970544;28;20296;-73
2023/04/27 11:20:45;;;;;;;0.60;0.50;;;21.50;73.80;;;;;;4971866;28;20290;-71
2023/04/27 11:23:24;;;;;;;0.70;0.60;;;21.30;74.10;;;;;;4941731;28;20227;-69
2023/04/27 11:25:53;;;;;;;1.13;1.02;;;21.00;74.30;;;;;;4939215;28;20219;-73
2023/04/27 11:28:22;;;;;;;0.80;0.70;;;21.00;76.20;;;;;;4950815;28;20205;-73
2023/04/27 11:30:56;;;;;;;0.70;0.60;;;21.20;73.70;;;;;;4969760;28;20319;-72
2023/04/27 11:33:24;;;;;;;0.60;0.45;;;21.10;75.00;;;;;;4968550;28;20199;-72
2023/04/27 11:35:52;;;;;;;0.80;0.70;;;21.00;74.70;;;;;;4969933;28;20682;-73
2023/04/27 11:38:21;;;;;;;0.60;0.40;;;21.00;73.60;;;;;;4945561;28;20291;-72
2023/04/27 11:41:02;;;;;;;0.60;0.50;;;21.30;74.20;;;;;;4961007;28;20314;-72
2023/04/27 11:43:30;;;;;;;0.60;0.50;;;21.80;75.10;;;;;;4945298;28;20361;-73
2023/04/27 11:46:02;;;;;;;0.60;0.50;;;21.50;73.70;;;;;;4940003;28;20209;-73
2023/04/27 11:48:30;;;;;;;0.70;0.60;;;21.20;73.20;;;;;;4952214;28;20202;-73
2023/04/27 11:50:59;;;;;;;0.50;0.40;;;21.10;74.00;;;;;;4945636;28;20291;-73
2023/04/27 11:53:32;;;;;;;0.75;0.60;;;21.10;75.40;;;;;;4942684;28;20214;-74
2023/04/27 11:56:04;;;;;;;0.60;0.40;;;20.80;74.90;;;;;;4943376;28;20210;-74
2023/04/27 11:58:33;;;;;;;1.17;0.90;;;20.70;76.90;;;;;;4950414;28;20357;-75
2023/04/27 12:01:03;;;;;;;0.70;0.60;;;20.70;74.80;;;;;;4945443;28;20324;-72
2023/04/27 12:03:31;;;;;;;0.80;0.60;;;20.90;73.80;;;;;;4937797;28;20240;-74
2023/04/27 12:05:59;;;;;;;0.60;0.40;;;21.00;73.60;;;;;;4945713;28;20209;-73
2023/04/27 12:08:47;;;;;;;0.63;0.52;;;21.10;73.90;;;;;;4941561;28;20217;-73
2023/04/27 12:11:16;;;;;;;0.60;0.55;;;21.20;73.30;;;;;;4951381;28;20248;-73
2023/04/27 12:13:45;;;;;;;0.70;0.50;;;21.40;75.80;;;;;;4943622;28;20208;-74
2023/04/27 12:16:14;;;;;;;2.20;0.80;;;21.90;73.70;;;;;;4941001;28;20250;-73
2023/04/27 12:18:41;;;;;;;0.88;0.85;;;22.20;72.70;;;;;;4944633;28;20236;-74
2023/04/27 12:21:09;;;;;;;0.70;0.60;;;22.50;73.50;;;;;;4936921;28;20239;-73
2023/04/27 12:23:37;;;;;;;0.90;0.80;;;22.60;73.40;;;;;;4942135;28;20272;-74
2023/04/27 12:26:05;;;;;;;0.70;0.65;;;22.20;73.80;;;;;;4941430;28;20240;-74
2023/04/27 12:28:34;;;;;;;1.33;1.20;;;21.50;72.50;;;;;;4937335;28;20304;-73
2023/04/27 12:31:03;;;;;;;0.60;0.50;;;21.60;73.90;;;;;;4943860;28;20303;-75
2023/04/27 12:33:31;;;;;;;0.60;0.60;;;21.80;72.70;;;;;;4945310;28;20678;-74
2023/04/27 12:36:00;;;;;;;0.60;0.57;;;21.80;73.70;;;;;;4944703;28;20230;-73
2023/04/27 12:38:28;;;;;;;1.38;0.65;;;21.70;73.40;;;;;;4948964;28;20263;-74
2023/04/27 12:40:56;;;;;;;1.00;0.90;;;21.40;73.10;;;;;;4945702;28;20728;-74
2023/04/27 12:43:23;;;;;;;0.60;0.50;;;21.20;73.40;;;;;;4947845;28;20263;-74
2023/04/27 12:45:53;;;;;;;0.80;0.80;;;21.30;75.00;;;;;;4941757;28;20235;-74
2023/04/27 12:48:22;;;;;;;0.90;0.80;;;21.20;72.80;;;;;;4939505;28;20212;-73
2023/04/27 12:50:49;;;;;;;0.80;0.63;;;20.90;73.10;;;;;;4948914;28;20242;-74
2023/04/27 12:53:17;;;;;;;0.73;0.63;;;21.10;73.90;;;;;;4936291;28;20700;-73
2023/04/27 12:55:46;;;;;;;0.60;0.50;;;21.60;74.60;;;;;;4940485;28;20217;-75
2023/04/27 12:58:14;;;;;;;0.70;0.60;;;22.00;74.40;;;;;;4941659;28;20727;-74
2023/04/27 13:00:42;;;;;;;0.60;0.40;;;21.80;73.50;;;;;;4942229;28;20216;-74
2023/04/27 13:03:11;;;;;;;0.70;0.50;;;21.90;72.10;;;;;;4937108;28;20214;-73
2023/04/27 13:05:39;;;;;;;0.95;0.95;;;21.60;72.90;;;;;;4940909;28;20230;-71
2023/04/27 13:08:07;;;;;;;0.90;0.63;;;21.50;72.50;;;;;;4949828;28;20209;-70